NCAR-RAP Real-Time Weather Data

Output produced by METARs form (23 February 2020  02:00 UTC)
found at http://weather.rap.ucar.edu/surface/
 
KCHS 230156Z 00000KT 10SM CLR 04/M02 A3038 RMK AO2 SLP286 T00391017 $
KCHS 230056Z 00000KT 10SM CLR 06/M02 A3037 RMK AO2 SLP285 T00611022 $
KCHS 222356Z 04003KT 10SM CLR 07/M03 A3038 RMK AO2 SLP287 T00721028 10133 20072 53000 $
KCHS 222256Z 15006KT 10SM CLR 09/M03 A3038 RMK AO2 SLP287 T00891028 $
KCHS 222156Z 00000KT 10SM CLR 12/M07 A3037 RMK AO2 SLP284 T01221072 $
KCHS 222056Z 31004KT 10SM FEW250 13/M08 A3038 RMK AO2 SLP286 T01281078 56023 $
KCHS 221956Z VRB04KT 10SM FEW250 13/M08 A3039 RMK AO2 SLP291 T01281083 $
KCHS 221856Z VRB03KT 10SM CLR 12/M08 A3042 RMK AO2 SLP300 T01171083 $
KCHS 221756Z VRB04KT 10SM CLR 11/M08 A3045 RMK AO2 SLP310 T01061083 10106 21028 58025 $
KCHS 221656Z 03006KT 10SM CLR 09/M08 A3048 RMK AO2 SLP323 T00891083 $
KCHS 221556Z 03008KT 350V060 10SM CLR 07/M09 A3051 RMK AO2 SLP332 T00721089 $
KCHS 221456Z 04008KT 10SM CLR 05/M09 A3052 RMK AO2 SLP335 T00501089 51024 $
KCHS 221356Z 04006KT 10SM CLR 02/M06 A3050 RMK AO2 SLP330 T00221056 $
KCHS 221256Z 01006KT 10SM CLR M01/M05 A3048 RMK AO2 SLP321 T10061050 $
KCHS 221156Z 02005KT 10SM CLR M03/M06 A3045 RMK AO2 SLP311 T10281061 11011 21044 51009 $
KCHS 221056Z 36006KT 10SM CLR M04/M07 A3045 RMK AO2 SLP311 T10391067 $
KCHS 220956Z 35004KT 10SM CLR M04/M07 A3044 RMK AO2 SLP308 T10391067 $
KCHS 220856Z 03004KT 10SM CLR M03/M06 A3042 RMK AO2 SLP302 T10281061 58014 $
KCHS 220756Z 03005KT 10SM CLR M02/M06 A3044 RMK AO2 SLP307 T10221061 $
KCHS 220656Z 05006KT 10SM CLR M01/M06 A3045 RMK AO2 SLP311 T10111056 $
KCHS 220556Z 02005KT 10SM CLR M02/M06 A3046 RMK AO2 SLP315 T10171061 10039 21017 56009 $
KCHS 220456Z 03007KT 10SM CLR 00/M06 A3046 RMK AO2 SLP316 T00001056 400830000 $
KCHS 220356Z 03007KT 10SM CLR 00/M06 A3048 RMK AO2 SLP322 T00001061 $
KCHS 220256Z 02008KT 10SM CLR 01/M07 A3049 RMK AO2 SLP324 T00111067 51017 $
KCHS 220156Z 04008KT 10SM CLR 02/M07 A3047 RMK AO2 SLP320 T00171072 $
KCHS 220056Z 03009KT 10SM CLR 03/M07 A3046 RMK AO2 SLP314 T00281067 $
KCHS 212356Z 02010KT 10SM CLR 04/M07 A3044 RMK AO2 SLP307 T00391067 10083 20039 53018 $
KCHS 212256Z 01011KT 10SM CLR 05/M06 A3042 RMK AO2 SLP301 T00501061
KCHS 212156Z 35018KT 10SM CLR 07/M07 A3040 RMK AO2 SLP292 T00671067
KCHS 212056Z 36015G24KT 10SM CLR 08/M06 A3038 RMK AO2 SLP288 T00781056 55012
KCHS 211956Z 36015G22KT 10SM FEW050 08/M05 A3038 RMK AO2 SLP287 T00781050
KCHS 211856Z 02016G25KT 10SM FEW045 07/M06 A3040 RMK AO2 PK WND 36026/1841 SLP292 T00671056
KCHS 211756Z 01018G26KT 10SM FEW040 06/M05 A3042 RMK AO2 PK WND 01026/1753 SLP300 T00611050 10067 20022 50005
KCHS 211656Z 03019G26KT 10SM BKN040 06/M04 A3044 RMK AO2 PK WND 01028/1620 SLP305 T00611039
KCHS 211556Z 36018G21KT 10SM BKN035 06/M02 A3042 RMK AO2 PK WND 03034/1520 SLP301 T00561022
KCHS 211456Z 03016G25KT 10SM SCT033 05/M02 A3041 RMK AO2 PK WND 03026/1428 SLP296 T00501022 51031
KCHS 211356Z 04014G21KT 10SM SCT028 03/M02 A3039 RMK AO2 PK WND 02027/1326 SLP290 T00331022
KCHS 211256Z 01013KT 10SM SCT028 02/M02 A3035 RMK AO2 PK WND 03026/1215 SLP279 T00221022 $
KCHS 211222Z 02016G26KT 10SM SCT025 02/M02 A3033 RMK AO2 PK WND 03026/1215 T00221022 $
KCHS 211156Z 01016G20KT 10SM BKN022 BKN028 03/M01 A3032 RMK AO2 SLP266 60000 70170 T00281011 10033 20028 53026 $
KCHS 211056Z 02017G26KT 10SM BKN022 OVC028 03/M01 A3029 RMK AO2 PK WND 02026/1053 SLP255 T00331006 $
KCHS 210956Z 02015KT 10SM OVC022 03/00 A3027 RMK AO2 SLP249 T00330000 $
KCHS 210856Z 03012G19KT 10SM OVC019 03/01 A3024 RMK AO2 SLP240 60000 T00280006 53003 $
KCHS 210756Z 01011KT 10SM OVC016 03/01 A3024 RMK AO2 SLP239 DZE08RAB11E44 P0000 T00280011 $
KCHS 210656Z 02016G22KT 10SM -DZ BKN015 OVC020 03/01 A3023 RMK AO2 PK WND 02029/0626 SLP236 P0000 T00330011 $
KCHS 210621Z 02017G25KT 8SM -DZ OVC017 03/01 A3023 RMK AO2 P0000 T00330011 $
KCHS 210556Z 02014KT 8SM -DZ FEW010 SCT012 OVC015 03/01 A3023 RMK AO2 PK WND 01027/0505 RAE02DZB02 SLP236 P0000 60012 T00330011 10050 20033 53005 $
KCHS 210539Z 36016G20KT 8SM -DZ FEW010 SCT014 OVC017 04/02 A3023 RMK AO2 PK WND 01027/0505 RAE02DZB02 P0000 T00390017 $
KCHS 210456Z 01014G21KT 8SM -RA BKN013 OVC020 04/02 A3023 RMK AO2 RAB46 SLP235 P0000 T00390022 400940039 $
KCHS 210356Z 02014G24KT 10SM BKN010 OVC014 04/03 A3021 RMK AO2 RAE50 SLP229 P0000 T00390028 $
KCHS 210256Z 01012G20KT 10SM -RA OVC013 04/03 A3022 RMK AO2 SLP231 P0002 60012 T00440033 53014 $
KCHS 210218Z 02012G19KT 6SM -RA BR BKN013 OVC020 04/03 A3020 RMK AO2 P0001 T00440033 $